createdAt,value
2022-12-01T00:01:23.152Z,11.18
2022-12-01T00:03:50.650Z,10.48
2022-12-01T00:06:20.806Z,10.52
2022-12-01T00:09:08.356Z,10.70
2022-12-01T00:11:37.099Z,9.83
2022-12-01T00:14:05.622Z,9.57
2022-12-01T00:16:33.602Z,10.02
2022-12-01T00:19:01.289Z,10.25
2022-12-01T00:21:28.790Z,10.05
2022-12-01T00:23:57.901Z,11.23
2022-12-01T00:26:26.942Z,10.52
2022-12-01T00:28:57.754Z,10.38
2022-12-01T00:31:25.750Z,10.45
2022-12-01T00:33:53.326Z,9.50
2022-12-01T00:36:21.469Z,9.97
2022-12-01T00:38:51.511Z,18.08
2022-12-01T00:41:18.964Z,11.48
2022-12-01T00:43:46.217Z,9.18
2022-12-01T00:46:13.666Z,9.38
2022-12-01T00:48:41.112Z,9.23
2022-12-01T00:51:08.604Z,10.90
2022-12-01T00:53:36.163Z,9.40
2022-12-01T00:56:03.481Z,9.90
2022-12-01T00:58:30.797Z,11.35
2022-12-01T01:01:00.113Z,10.47
2022-12-01T01:03:28.800Z,9.57
2022-12-01T01:05:56.249Z,10.45
2022-12-01T01:08:23.773Z,10.27
2022-12-01T01:10:51.277Z,10.48
2022-12-01T01:13:18.738Z,10.10
2022-12-01T01:15:46.504Z,10.10
2022-12-01T01:18:13.999Z,11.85
2022-12-01T01:20:41.491Z,10.52
2022-12-01T01:23:09.283Z,10.38
2022-12-01T01:25:36.589Z,9.73
2022-12-01T01:28:04.243Z,11.00
2022-12-01T01:30:31.782Z,10.73
2022-12-01T01:32:59.963Z,9.73
2022-12-01T01:35:27.321Z,11.55
2022-12-01T01:37:54.860Z,9.87
2022-12-01T01:40:22.251Z,8.90
2022-12-01T01:42:49.747Z,10.25
2022-12-01T01:45:30.066Z,10.63
2022-12-01T01:48:00.285Z,10.35
2022-12-01T01:50:29.322Z,9.50
2022-12-01T01:53:03.296Z,10.88
2022-12-01T01:55:33.989Z,9.65
2022-12-01T01:58:04.623Z,10.75
2022-12-01T02:00:32.278Z,10.23
2022-12-01T02:03:00.713Z,9.93
2022-12-01T02:05:32.157Z,9.73
2022-12-01T02:08:01.609Z,10.18
2022-12-01T02:11:00.909Z,9.63
2022-12-01T02:14:00.652Z,10.13
2022-12-01T02:16:49.149Z,9.40
2022-12-01T02:19:41.488Z,9.98
2022-12-01T02:22:27.680Z,9.50
2022-12-01T02:25:07.775Z,9.02
2022-12-01T02:27:55.958Z,10.40
2022-12-01T02:30:51.110Z,8.97
2022-12-01T02:33:40.482Z,9.45
2022-12-01T02:36:14.060Z,10.05
2022-12-01T02:38:55.230Z,9.70
2022-12-01T02:41:31.042Z,8.70
2022-12-01T02:44:22.843Z,8.77
2022-12-01T02:47:16.443Z,9.32
2022-12-01T02:49:53.332Z,9.68
2022-12-01T02:52:24.168Z,8.57
2022-12-01T02:54:53.534Z,10.05
2022-12-01T02:57:24.848Z,9.10
2022-12-01T02:59:55.637Z,9.48
2022-12-01T03:02:43.883Z,9.65
2022-12-01T03:05:29.419Z,9.63
2022-12-01T03:08:29.203Z,9.73
2022-12-01T03:10:58.494Z,9.27
2022-12-01T03:13:40.790Z,9.95
2022-12-01T03:16:14.015Z,10.32
2022-12-01T03:19:00.342Z,9.57
2022-12-01T03:21:32.482Z,9.85
2022-12-01T03:24:09.370Z,9.40
2022-12-01T03:26:40.494Z,9.88
2022-12-01T03:29:12.787Z,9.65
2022-12-01T03:31:47.700Z,9.55
2022-12-01T03:34:27.389Z,10.98
2022-12-01T03:37:02.894Z,9.70
2022-12-01T03:39:34.106Z,9.75
2022-12-01T03:42:09.292Z,10.68
2022-12-01T03:44:50.934Z,10.40
2022-12-01T03:47:23.101Z,9.82
2022-12-01T03:49:52.422Z,10.13
2022-12-01T03:52:44.017Z,9.95
2022-12-01T03:55:29.478Z,9.93
2022-12-01T03:58:14.683Z,10.18
2022-12-01T04:00:44.011Z,11.15
2022-12-01T04:03:19.005Z,9.33
2022-12-01T04:05:46.556Z,10.60
2022-12-01T04:08:14.293Z,10.65
2022-12-01T04:10:41.767Z,10.88
2022-12-01T04:13:16.647Z,10.57
2022-12-01T04:15:44.417Z,11.40
2022-12-01T04:18:11.814Z,11.10
2022-12-01T04:20:39.268Z,11.15
2022-12-01T04:23:08.211Z,10.30
2022-12-01T04:25:35.633Z,11.43
2022-12-01T04:28:03.378Z,11.23
2022-12-01T04:30:30.984Z,10.20
2022-12-01T04:32:58.517Z,11.20
2022-12-01T04:35:25.896Z,10.43
2022-12-01T04:37:53.428Z,10.85
2022-12-01T04:40:21.988Z,10.77
2022-12-01T04:42:49.627Z,10.25
2022-12-01T04:45:17.284Z,10.90
2022-12-01T04:47:44.711Z,11.35
2022-12-01T04:50:12.376Z,11.15
2022-12-01T04:52:39.785Z,11.00
2022-12-01T04:55:08.719Z,11.00
2022-12-01T04:57:36.384Z,11.40
2022-12-01T05:00:13.354Z,11.55
2022-12-01T05:02:43.717Z,12.13
2022-12-01T05:05:12.374Z,11.43
2022-12-01T05:07:39.915Z,10.43
2022-12-01T05:10:08.353Z,11.30
2022-12-01T05:12:35.713Z,11.18
2022-12-01T05:15:03.363Z,11.63
2022-12-01T05:17:36.750Z,9.93
2022-12-01T05:20:24.108Z,10.43
2022-12-01T05:23:10.793Z,11.15
2022-12-01T05:25:39.952Z,10.90
2022-12-01T05:28:07.488Z,11.98
2022-12-01T05:30:35.347Z,11.77
2022-12-01T05:33:03.753Z,12.13
2022-12-01T05:35:32.871Z,10.43
2022-12-01T05:38:04.565Z,10.50
2022-12-01T05:40:36.580Z,10.25
2022-12-01T05:43:04.258Z,10.97
2022-12-01T05:45:32.603Z,10.95
2022-12-01T05:48:01.889Z,11.13
2022-12-01T05:50:30.687Z,12.05
2022-12-01T05:52:58.447Z,12.77
2022-12-01T05:55:25.879Z,12.33
2022-12-01T05:57:53.435Z,11.52
2022-12-01T06:00:21.341Z,11.73
2022-12-01T06:02:48.994Z,11.05
2022-12-01T06:05:16.482Z,13.73
2022-12-01T06:07:44.319Z,12.17
2022-12-01T06:10:12.514Z,12.82
2022-12-01T06:12:40.405Z,10.90
2022-12-01T06:15:08.591Z,10.52
2022-12-01T06:17:40.229Z,12.10
2022-12-01T06:20:09.952Z,10.63
2022-12-01T06:22:37.520Z,10.65
2022-12-01T06:25:05.429Z,9.77
2022-12-01T06:27:32.852Z,9.68
2022-12-01T06:30:00.374Z,10.15
2022-12-01T06:32:27.901Z,9.50
2022-12-01T06:34:55.364Z,10.70
2022-12-01T06:37:22.706Z,12.27
2022-12-01T06:39:50.206Z,10.15
2022-12-01T06:42:17.794Z,10.35
2022-12-01T06:44:46.468Z,11.17
2022-12-01T06:47:14.359Z,11.60
2022-12-01T06:49:41.946Z,12.20
2022-12-01T06:52:10.502Z,11.23
2022-12-01T06:54:38.005Z,11.05
2022-12-01T06:57:05.560Z,9.90
2022-12-01T06:59:33.346Z,10.63
2022-12-01T07:02:03.312Z,10.05
2022-12-01T07:04:31.324Z,9.57
2022-12-01T07:06:58.839Z,10.38
2022-12-01T07:09:26.255Z,10.73
2022-12-01T07:11:53.596Z,9.90
2022-12-01T07:14:24.747Z,10.80
2022-12-01T07:16:52.330Z,9.25
2022-12-01T07:19:20.070Z,11.60
2022-12-01T07:21:47.496Z,10.70
2022-12-01T07:24:15.080Z,10.63
2022-12-01T07:26:43.169Z,10.07
2022-12-01T07:29:11.677Z,10.32
2022-12-01T07:31:39.678Z,10.30
2022-12-01T07:34:07.324Z,10.13
2022-12-01T07:36:34.856Z,10.30
2022-12-01T07:39:06.734Z,10.20
2022-12-01T07:41:35.015Z,10.52
2022-12-01T07:44:03.004Z,10.60
2022-12-01T07:46:30.590Z,10.90
2022-12-01T07:48:59.630Z,10.88
2022-12-01T07:51:27.513Z,11.20
2022-12-01T07:53:55.856Z,11.20
2022-12-01T07:56:23.910Z,10.98
2022-12-01T07:58:51.730Z,10.17
2022-12-01T08:01:22.295Z,9.82
2022-12-01T08:03:51.554Z,10.23
2022-12-01T08:06:21.046Z,9.48
2022-12-01T08:08:49.268Z,9.52
2022-12-01T08:11:22.692Z,9.87
2022-12-01T08:13:51.047Z,9.45
2022-12-01T08:16:21.523Z,9.60
2022-12-01T08:18:49.675Z,10.35
2022-12-01T08:21:20.017Z,10.27
2022-12-01T08:23:48.014Z,10.43
2022-12-01T08:26:18.813Z,10.10
2022-12-01T08:28:47.131Z,9.88
2022-12-01T08:31:26.458Z,8.38
2022-12-01T08:33:54.948Z,8.63
2022-12-01T08:36:23.896Z,8.97
2022-12-01T08:38:53.966Z,9.18
2022-12-01T08:41:22.056Z,8.27
2022-12-01T08:43:58.459Z,8.65
2022-12-01T08:46:28.782Z,9.13
2022-12-01T08:48:57.995Z,8.53
2022-12-01T08:51:26.529Z,8.18
2022-12-01T08:53:55.420Z,7.43
2022-12-01T08:56:37.506Z,9.10
2022-12-01T08:59:05.741Z,8.40
2022-12-01T09:01:33.785Z,8.40
2022-12-01T09:04:06.550Z,8.32
2022-12-01T09:06:45.721Z,9.27
2022-12-01T09:09:16.653Z,9.68
2022-12-01T09:11:44.840Z,8.02
2022-12-01T09:14:13.973Z,8.60
2022-12-01T09:16:42.970Z,8.52
2022-12-01T09:19:13.204Z,8.68
2022-12-01T09:21:43.677Z,8.55
2022-12-01T09:24:13.341Z,9.35
2022-12-01T09:26:41.421Z,7.63
2022-12-01T09:29:12.091Z,7.03
2022-12-01T09:31:40.057Z,8.27
2022-12-01T09:34:11.284Z,7.28
2022-12-01T09:36:39.240Z,9.02
2022-12-01T09:39:09.366Z,9.33
2022-12-01T09:42:09.479Z,8.95
2022-12-01T09:45:06.219Z,8.10
2022-12-01T09:47:37.500Z,8.25
2022-12-01T09:50:16.131Z,8.10
2022-12-01T09:52:53.738Z,8.17
2022-12-01T09:55:24.720Z,8.43
2022-12-01T09:57:58.042Z,7.63
2022-12-01T10:00:32.503Z,7.30
2022-12-01T10:03:06.392Z,8.02
2022-12-01T10:06:25.009Z,7.77
2022-12-01T10:08:48.169Z,7.38
2022-12-01T10:11:27.988Z,8.85
2022-12-01T10:13:55.590Z,8.85
2022-12-01T10:16:33.572Z,9.05
2022-12-01T10:19:41.918Z,8.23
2022-12-01T10:22:24.267Z,9.13
2022-12-01T10:25:20.534Z,9.07
2022-12-01T10:28:14.881Z,10.38
2022-12-01T10:30:50.829Z,10.07
2022-12-01T10:33:27.084Z,8.70
2022-12-01T10:35:54.855Z,9.68
2022-12-01T10:38:32.911Z,10.70
2022-12-01T10:41:02.039Z,9.02
2022-12-01T10:43:42.498Z,8.75
2022-12-01T10:46:56.426Z,8.57
2022-12-01T10:49:39.452Z,9.40
2022-12-01T10:52:08.060Z,10.75
2022-12-01T10:54:42.390Z,10.50
2022-12-01T10:57:18.109Z,10.35
2022-12-01T10:59:53.553Z,9.43
2022-12-01T11:02:27.309Z,8.85
2022-12-01T11:05:04.841Z,10.18
2022-12-01T11:07:47.908Z,10.95
2022-12-01T11:10:23.683Z,9.85
2022-12-01T11:12:58.024Z,9.10
2022-12-01T11:15:29.421Z,9.68
2022-12-01T11:18:06.792Z,8.75
2022-12-01T11:20:37.301Z,9.15
2022-12-01T11:23:30.137Z,10.45
2022-12-01T11:26:10.350Z,8.70
2022-12-01T11:28:50.296Z,10.15
2022-12-01T11:31:18.611Z,10.23
2022-12-01T11:33:54.928Z,9.40
2022-12-01T11:36:47.839Z,10.23
2022-12-01T11:39:23.198Z,10.27
2022-12-01T11:41:59.949Z,9.20
2022-12-01T11:44:50.330Z,10.93
2022-12-01T11:47:24.305Z,8.82
2022-12-01T11:50:01.290Z,10.10
2022-12-01T11:52:31.268Z,10.20
2022-12-01T11:55:03.189Z,8.00
2022-12-01T11:57:34.883Z,9.77
2022-12-01T12:00:12.781Z,9.45
2022-12-01T12:02:58.941Z,11.00
2022-12-01T12:05:40.616Z,9.53
2022-12-01T12:08:15.925Z,9.55
2022-12-01T12:11:36.207Z,9.93
2022-12-01T12:14:03.466Z,9.88
2022-12-01T12:16:57.343Z,10.77
2022-12-01T12:19:33.571Z,10.33
2022-12-01T12:22:19.920Z,10.00
2022-12-01T12:25:12.936Z,11.07
2022-12-01T12:27:52.823Z,9.35
2022-12-01T12:30:28.477Z,9.68
2022-12-01T12:33:13.932Z,9.57
2022-12-01T12:35:41.323Z,9.25
2022-12-01T12:38:27.117Z,9.18
2022-12-01T12:41:00.983Z,9.50
2022-12-01T12:43:44.209Z,9.68
2022-12-01T12:46:25.755Z,8.93
2022-12-01T12:51:55.474Z,9.23
2022-12-01T12:55:00.123Z,7.63
2022-12-01T12:57:44.039Z,9.98
2022-12-01T13:00:19.086Z,8.10
2022-12-01T13:02:56.457Z,8.90
2022-12-01T13:05:49.611Z,9.07
2022-12-01T13:08:40.763Z,9.40
2022-12-01T13:11:15.269Z,8.27
2022-12-01T13:14:00.808Z,10.07
2022-12-01T13:16:46.804Z,8.50
2022-12-01T13:19:39.533Z,8.68
2022-12-01T13:22:08.085Z,7.93
2022-12-01T13:24:35.592Z,8.95
2022-12-01T13:27:15.741Z,8.83
2022-12-01T13:29:49.501Z,8.27
2022-12-01T13:32:32.059Z,8.65
2022-12-01T13:35:01.219Z,8.43
2022-12-01T13:37:46.450Z,9.98
2022-12-01T13:40:31.752Z,9.10
2022-12-01T13:45:52.997Z,7.75
2022-12-01T13:48:43.686Z,8.40
2022-12-01T13:51:11.047Z,9.88
2022-12-01T13:53:39.377Z,10.07
2022-12-01T13:56:18.672Z,9.35
2022-12-01T13:58:46.112Z,8.88
2022-12-01T14:01:23.256Z,8.45
2022-12-01T14:03:57.869Z,8.38
2022-12-01T14:06:49.876Z,7.30
2022-12-01T14:09:39.766Z,7.45
2022-12-01T14:12:30.592Z,8.55
2022-12-01T14:15:04.829Z,8.98
2022-12-01T14:17:33.938Z,8.60
2022-12-01T14:20:20.746Z,8.70
2022-12-01T14:23:09.539Z,8.88
2022-12-01T14:25:38.018Z,9.35
2022-12-01T14:28:17.301Z,6.88
2022-12-01T14:30:46.258Z,7.70
2022-12-01T14:33:51.394Z,7.33
2022-12-01T14:36:24.326Z,7.60
2022-12-01T14:39:06.062Z,7.88
2022-12-01T14:41:48.132Z,7.05
2022-12-01T14:44:36.789Z,7.50
2022-12-01T14:47:12.690Z,8.80
2022-12-01T14:49:49.102Z,8.35
2022-12-01T14:52:28.138Z,7.65
2022-12-01T14:55:14.049Z,8.75
2022-12-01T14:57:49.015Z,7.75
2022-12-01T15:00:23.901Z,7.87
2022-12-01T15:03:07.987Z,7.63
2022-12-01T15:05:43.904Z,9.00
2022-12-01T15:08:49.096Z,7.15
2022-12-01T15:11:22.683Z,8.55
2022-12-01T15:13:55.079Z,8.73
2022-12-01T15:16:29.281Z,8.82
2022-12-01T15:18:57.206Z,8.65
2022-12-01T15:21:28.195Z,9.07
2022-12-01T15:24:23.860Z,8.23
2022-12-01T15:26:53.675Z,8.77
2022-12-01T15:29:31.588Z,8.32
2022-12-01T15:32:06.599Z,8.38
2022-12-01T15:34:39.855Z,8.93
2022-12-01T15:37:23.050Z,7.40
2022-12-01T15:40:59.661Z,8.93
2022-12-01T15:43:15.929Z,6.57
2022-12-01T15:45:49.266Z,9.07
2022-12-01T15:48:26.278Z,9.05
2022-12-01T15:51:21.549Z,9.00
2022-12-01T15:53:54.562Z,9.07
2022-12-01T15:56:33.500Z,9.77
2022-12-01T15:59:16.650Z,8.13
2022-12-01T16:01:46.499Z,9.57
2022-12-01T16:04:18.342Z,9.20
2022-12-01T16:06:58.264Z,8.17
2022-12-01T16:09:34.648Z,7.93
2022-12-01T16:12:18.127Z,9.52
2022-12-01T16:15:02.382Z,7.45
2022-12-01T16:17:44.111Z,8.38
2022-12-01T16:20:31.818Z,8.30
2022-12-01T16:23:04.184Z,8.82
2022-12-01T16:25:36.432Z,8.57
2022-12-01T16:28:06.608Z,8.02
2022-12-01T16:30:40.898Z,8.93
2022-12-01T16:33:28.339Z,7.77
2022-12-01T16:35:59.742Z,7.97
2022-12-01T16:38:32.007Z,7.80
2022-12-01T16:41:01.656Z,8.05
2022-12-01T16:43:33.537Z,7.70
2022-12-01T16:46:07.637Z,7.87
2022-12-01T16:48:35.289Z,8.65
2022-12-01T16:51:04.888Z,9.02
2022-12-01T16:53:32.488Z,8.77
2022-12-01T16:56:03.235Z,8.48
2022-12-01T16:58:31.259Z,8.37
2022-12-01T17:00:59.151Z,7.38
2022-12-01T17:03:31.595Z,8.43
2022-12-01T17:06:04.461Z,8.15
2022-12-01T17:08:32.627Z,8.43
2022-12-01T17:11:02.041Z,8.00
2022-12-01T17:13:31.450Z,9.35
2022-12-01T17:16:00.497Z,9.90
2022-12-01T17:18:30.101Z,8.77
2022-12-01T17:21:03.263Z,8.25
2022-12-01T17:23:34.870Z,8.33
2022-12-01T17:26:03.433Z,7.93
2022-12-01T17:28:32.530Z,8.15
2022-12-01T17:31:05.927Z,7.97
2022-12-01T17:33:35.383Z,8.82
2022-12-01T17:36:10.415Z,7.60
2022-12-01T17:38:43.484Z,8.40
2022-12-01T17:41:23.699Z,8.38
2022-12-01T17:43:52.154Z,8.48
2022-12-01T17:46:23.378Z,8.30
2022-12-01T17:48:51.834Z,8.70
2022-12-01T17:51:20.016Z,8.00
2022-12-01T17:53:49.177Z,8.13
2022-12-01T17:56:18.434Z,8.32
2022-12-01T17:58:48.150Z,8.23
2022-12-01T18:01:19.573Z,7.63
2022-12-01T18:03:49.524Z,7.90
2022-12-01T18:06:21.647Z,8.70
2022-12-01T18:08:49.329Z,9.27
2022-12-01T18:11:17.979Z,8.50
2022-12-01T18:13:48.023Z,8.33
2022-12-01T18:16:21.971Z,7.22
2022-12-01T18:18:50.688Z,8.35
2022-12-01T18:21:24.871Z,8.25
2022-12-01T18:23:57.367Z,8.93
2022-12-01T18:26:27.342Z,9.33
2022-12-01T18:29:01.862Z,8.45
2022-12-01T18:31:32.875Z,8.25
2022-12-01T18:34:05.223Z,8.02
2022-12-01T18:36:39.820Z,8.20
2022-12-01T18:39:10.394Z,7.10
2022-12-01T18:41:40.739Z,7.72
2022-12-01T18:44:09.957Z,8.55
2022-12-01T18:46:39.928Z,7.50
2022-12-01T18:49:10.488Z,7.57
2022-12-01T18:51:39.923Z,8.47
2022-12-01T18:54:09.492Z,7.78
2022-12-01T18:56:36.998Z,7.47
2022-12-01T18:59:06.773Z,7.88
2022-12-01T19:01:40.220Z,8.77
2022-12-01T19:04:09.133Z,8.37
2022-12-01T19:06:38.482Z,10.30
2022-12-01T19:09:09.502Z,9.60
2022-12-01T19:11:38.191Z,9.23
2022-12-01T19:14:05.636Z,9.20
2022-12-01T19:16:33.593Z,9.27
2022-12-01T19:19:02.113Z,8.88
2022-12-01T19:21:29.736Z,9.02
2022-12-01T19:23:57.217Z,8.60
2022-12-01T19:26:25.937Z,8.15
2022-12-01T19:28:53.699Z,9.37
2022-12-01T19:31:23.980Z,8.40
2022-12-01T19:33:53.041Z,8.95
2022-12-01T19:36:23.233Z,10.05
2022-12-01T19:38:51.477Z,9.07
2022-12-01T19:41:21.131Z,9.60
2022-12-01T19:43:48.998Z,8.82
2022-12-01T19:46:21.789Z,8.85
2022-12-01T19:48:59.157Z,9.60
2022-12-01T19:51:30.042Z,8.30
2022-12-01T19:53:58.090Z,8.83
2022-12-01T19:56:26.077Z,7.88
2022-12-01T19:58:53.540Z,8.82
2022-12-01T20:01:21.832Z,8.70
2022-12-01T20:03:51.581Z,9.00
2022-12-01T20:06:25.448Z,8.73
2022-12-01T20:08:53.405Z,9.38
2022-12-01T20:11:20.953Z,8.93
2022-12-01T20:13:49.001Z,7.68
2022-12-01T20:16:19.028Z,8.23
2022-12-01T20:18:47.677Z,8.43
2022-12-01T20:21:17.970Z,7.72
2022-12-01T20:23:51.415Z,9.25
2022-12-01T20:26:20.356Z,9.98
2022-12-01T20:28:49.983Z,8.45
2022-12-01T20:31:25.793Z,8.63
2022-12-01T20:33:55.699Z,8.75
2022-12-01T20:36:23.706Z,7.95
2022-12-01T20:38:51.392Z,8.88
2022-12-01T20:41:20.004Z,8.13
2022-12-01T20:43:47.830Z,9.03
2022-12-01T20:46:16.021Z,9.02
2022-12-01T20:48:43.528Z,8.77
2022-12-01T20:51:14.046Z,8.02
2022-12-01T20:53:54.488Z,8.57
2022-12-01T20:56:29.186Z,7.83
2022-12-01T20:58:56.674Z,7.80
2022-12-01T21:01:24.289Z,8.95
2022-12-01T21:03:53.117Z,8.00
2022-12-01T21:06:21.414Z,9.13
2022-12-01T21:08:50.583Z,8.10
2022-12-01T21:11:51.770Z,8.95
2022-12-01T21:14:32.915Z,8.02
2022-12-01T21:17:08.993Z,9.82
2022-12-01T21:19:39.573Z,9.52
2022-12-01T21:22:12.945Z,8.83
2022-12-01T21:24:44.022Z,9.63
2022-12-01T21:27:16.866Z,10.52
2022-12-01T21:29:49.337Z,9.88
2022-12-01T21:32:32.538Z,11.15
2022-12-01T21:35:15.306Z,9.97
2022-12-01T21:37:42.951Z,9.55
2022-12-01T21:40:25.701Z,9.77
2022-12-01T21:42:53.374Z,8.70
2022-12-01T21:45:28.651Z,8.20
2022-12-01T21:48:01.664Z,8.37
2022-12-01T21:50:29.210Z,7.68
2022-12-01T21:52:58.147Z,8.43
2022-12-01T21:55:26.418Z,8.38
2022-12-01T21:57:54.558Z,8.38
2022-12-01T22:00:34.398Z,8.50
2022-12-01T22:03:04.584Z,8.90
2022-12-01T22:05:35.534Z,8.65
2022-12-01T22:08:14.669Z,8.60
2022-12-01T22:11:08.632Z,8.27
2022-12-01T22:13:59.577Z,9.13
2022-12-01T22:16:34.198Z,8.57
2022-12-01T22:19:35.224Z,8.48
2022-12-01T22:22:18.635Z,7.03
2022-12-01T22:25:13.489Z,8.38
2022-12-01T22:27:44.192Z,7.70
2022-12-01T22:30:20.076Z,8.88
2022-12-01T22:33:03.988Z,8.23
2022-12-01T22:35:43.120Z,7.70
2022-12-01T22:38:31.816Z,8.18
2022-12-01T22:41:03.920Z,8.00
2022-12-01T22:43:47.287Z,7.60
2022-12-01T22:46:23.832Z,8.38
2022-12-01T22:49:14.156Z,8.32
2022-12-01T22:51:48.727Z,8.02
2022-12-01T22:54:16.063Z,9.43
2022-12-01T22:56:54.987Z,8.90
2022-12-01T22:59:27.689Z,8.77
2022-12-01T23:01:57.770Z,8.98
2022-12-01T23:04:27.638Z,8.75
2022-12-01T23:07:01.258Z,8.73
2022-12-01T23:09:44.286Z,9.10
2022-12-01T23:12:11.748Z,8.93
2022-12-01T23:14:46.216Z,9.32
2022-12-01T23:17:26.826Z,9.30
2022-12-01T23:20:03.269Z,9.60
2022-12-01T23:22:30.751Z,8.38
2022-12-01T23:24:58.388Z,9.38
2022-12-01T23:27:25.766Z,10.32
2022-12-01T23:29:53.080Z,10.02
2022-12-01T23:32:20.587Z,8.83
2022-12-01T23:34:48.178Z,9.18
2022-12-01T23:37:35.986Z,9.73
2022-12-01T23:40:15.990Z,9.00
2022-12-01T23:42:43.439Z,9.60
2022-12-01T23:45:27.577Z,10.27
2022-12-01T23:47:56.988Z,9.27
2022-12-01T23:50:26.976Z,9.80
2022-12-01T23:52:54.746Z,10.27
2022-12-01T23:55:30.773Z,10.55
2022-12-01T23:57:59.367Z,10.20
